Time;durP1;ratioP1;P1;durP2;ratioP2;P2;SDS_P1;SDS_P2;PMS_P1;PMS_P2;Temp;Humidity;BMP_temperature;BMP_pressure;BME280_temperature;BME280_humidity;BME280_pressure;Samples;Min_cycle;Max_cycle;Signal;HPM_P1;HPM_P2
2022/04/13 03:30:01;;;;;;;;;;;;;;;6.49;100.00;99289.94;5698525;23;19997;-86
2022/04/13 03:32:26;;;;;;;;;;;;;;;6.49;100.00;99290.81;4946128;28;20429;-86
2022/04/13 03:34:51;;;;;;;;;;;;;;;6.51;100.00;99298.63;4945997;29;19923;-93
2022/04/13 03:37:18;;;;;;;;;;;;;;;6.51;100.00;99296.00;4947848;28;19930;-90
2022/04/13 03:39:43;;;;;;;;;;;;;;;6.53;100.00;99291.56;4946914;29;19926;-91
2022/04/13 03:42:08;;;;;;;;;;;;;;;6.55;100.00;99295.00;4946225;29;19923;-92
2022/04/13 03:44:33;;;;;;;;;;;;;;;6.56;100.00;99291.47;4945138;29;20032;-91
2022/04/13 03:46:59;;;;;;;;;;;;;;;6.56;100.00;99288.81;4946538;29;19980;-91
2022/04/13 03:49:24;;;;;;;;;;;;;;;6.59;100.00;99291.34;4946907;29;19973;-89
2022/04/13 03:51:49;;;;;;;;;;;;;;;6.58;100.00;99289.63;4946122;28;20266;-89
2022/04/13 03:54:15;;;;;;;;;;;;;;;6.61;100.00;99299.19;4944545;29;19919;-87
2022/04/13 03:56:40;;;;;;;;;;;;;;;6.58;100.00;99297.53;4945853;29;20049;-87
2022/04/13 03:59:07;;;;;;;;;;;;;;;5.88;100.00;99300.66;4944471;28;20233;-88
2022/04/13 04:01:33;;;;;;;;;;;;;;;5.64;100.00;99297.88;4946469;28;19923;-90
2022/04/13 04:03:58;;;;;;;;;;;;;;;5.53;100.00;99303.44;4946544;29;19918;-90
2022/04/13 04:06:26;;;;;;;;;;;;;;;5.36;100.00;99317.13;4944390;29;19989;-89
2022/04/13 04:08:52;;;;;;;;;;;;;;;5.27;100.00;99318.22;4945809;28;19918;-88
2022/04/13 04:11:17;;;;;;;;;;;;;;;5.23;100.00;99331.47;4945469;28;20002;-89
2022/04/13 04:13:42;;;;;;;;;;;;;;;5.11;100.00;99321.34;4943871;29;19922;-88
2022/04/13 04:16:08;;;;;;;;;;;;;;;5.07;100.00;99323.16;4943868;29;19967;-89
2022/04/13 04:18:33;;;;;;;;;;;;;;;5.02;100.00;99327.69;4945205;29;20017;-87
2022/04/13 04:20:58;;;;;;;;;;;;;;;4.94;100.00;99329.69;4945071;29;20008;-88
2022/04/13 04:23:23;;;;;;;;;;;;;;;4.94;100.00;99320.03;4944130;29;20040;-88
2022/04/13 04:25:49;;;;;;;;;;;;;;;4.91;100.00;99321.00;4945088;29;20255;-86
2022/04/13 07:42:19;;;;;;;;;;;;;;;3.73;91.13;99468.88;5270629;23;19933;-88
2022/04/13 07:44:45;;;;;;;;;;;;;;;3.75;91.30;99468.84;4927993;29;19927;-89
2022/04/13 07:47:10;;;;;;;;;;;;;;;3.74;91.22;99464.50;4927366;29;19966;-86
2022/04/13 07:49:35;;;;;;;;;;;;;;;3.77;91.36;99470.56;4927683;29;20279;-91
2022/04/13 07:52:01;;;;;;;;;;;;;;;3.83;91.43;99472.19;4927081;29;19919;-84
2022/04/13 07:54:26;;;;;;;;;;;;;;;3.73;91.24;99481.97;4925987;29;19927;-87
2022/04/13 07:56:51;;;;;;;;;;;;;;;3.75;91.41;99482.84;4926320;29;20379;-90
2022/04/13 07:59:16;;;;;;;;;;;;;;;3.78;91.33;99480.16;4927328;29;19930;-84
2022/04/13 08:01:42;;;;;;;;;;;;;;;3.81;91.09;99487.94;4927883;29;19919;-87
2022/04/13 08:04:07;;;;;;;;;;;;;;;3.77;90.98;99483.66;4927237;29;19923;-83
2022/04/13 08:06:32;;;;;;;;;;;;;;;3.74;90.95;99481.09;4926486;29;19919;-87
2022/04/13 08:08:58;;;;;;;;;;;;;;;3.87;91.48;99491.34;4926959;29;19963;-85
2022/04/13 08:11:23;;;;;;;;;;;;;;;5.17;95.30;99484.00;4934617;29;19919;-85
2022/04/13 08:13:48;;;;;;;;;;;;;;;6.89;95.43;99480.81;4927027;29;19926;-89
2022/04/13 08:16:13;;;;;;;;;;;;;;;7.35;94.51;99481.06;4926087;29;19915;-89
2022/04/13 08:18:39;;;;;;;;;;;;;;;7.89;95.20;99479.16;4926359;29;19923;-89
2022/04/13 08:21:04;;;;;;;;;;;;;;;8.43;94.67;99480.63;4926444;29;19914;-89
2022/04/13 08:23:29;;;;;;;;;;;;;;;8.73;93.23;99477.72;4926990;29;19919;-77
2022/04/13 08:25:54;;;;;;;;;;;;;;;7.38;93.35;99480.94;4927866;29;19919;-86
2022/04/13 08:28:20;;;;;;;;;;;;;;;6.52;94.11;99489.88;4929395;29;19915;-86
2022/04/13 08:30:45;;;;;;;;;;;;;;;6.12;94.33;99491.09;4930942;29;20386;-92
2022/04/13 08:33:10;;;;;;;;;;;;;;;5.91;94.42;99490.75;4928652;29;19919;-87
2022/04/13 08:35:35;;;;;;;;;;;;;;;5.73;93.96;99492.16;4928553;29;19922;-88
2022/04/13 08:38:01;;;;;;;;;;;;;;;5.61;93.43;99495.09;4929900;29;19919;-91
2022/04/13 08:40:26;;;;;;;;;;;;;;;5.50;92.93;99491.91;4930508;29;20390;-88
2022/04/13 08:43:12;;;;;;;;;;;;;;;5.43;92.76;99496.47;4927947;29;20002;-89
2022/04/13 08:45:52;;;;;;;;;;;;;;;5.33;92.13;99501.09;4927020;29;19923;-89
2022/04/13 08:48:20;;;;;;;;;;;;;;;5.27;91.51;99501.25;4928513;29;20006;-90
2022/04/13 08:50:45;;;;;;;;;;;;;;;5.16;91.13;99504.16;4930115;29;19920;-92
2022/04/13 08:53:14;;;;;;;;;;;;;;;5.13;90.66;99504.22;4928680;29;19939;-86
2022/04/13 08:55:46;;;;;;;;;;;;;;;5.13;90.24;99504.22;4930719;29;19973;-89
2022/04/13 08:58:21;;;;;;;;;;;;;;;5.16;90.04;99504.16;4934260;29;19926;-90
2022/04/13 09:00:48;;;;;;;;;;;;;;;5.07;89.60;99514.88;4930438;29;20003;-92
2022/04/13 09:03:26;;;;;;;;;;;;;;;5.02;89.21;99516.78;4927249;29;19962;-88
2022/04/13 09:05:53;;;;;;;;;;;;;;;5.00;89.34;99508.94;4927917;29;19966;-86
2022/04/13 09:08:37;;;;;;;;;;;;;;;4.98;89.22;99512.47;4927738;29;19950;-91
2022/04/13 09:11:04;;;;;;;;;;;;;;;4.98;89.01;99520.34;4950259;29;19918;-91
2022/04/13 09:13:32;;;;;;;;;;;;;;;4.93;88.95;99506.47;4932649;29;20054;-92
2022/04/13 09:15:58;;;;;;;;;;;;;;;4.98;88.97;99510.75;4929109;29;19926;-89
2022/04/13 09:18:24;;;;;;;;;;;;;;;4.91;89.00;99519.66;4928486;29;20005;-88
2022/04/13 09:20:50;;;;;;;;;;;;;;;4.86;89.08;99511.03;4932656;29;19929;-91
2022/04/13 09:23:15;;;;;;;;;;;;;;;4.90;88.94;99518.78;4928114;29;19919;-91
2022/04/13 09:25:43;;;;;;;;;;;;;;;4.88;88.84;99512.72;4927336;29;19919;-87
2022/04/13 09:28:09;;;;;;;;;;;;;;;4.90;88.88;99518.78;4928122;29;19998;-94
2022/04/13 09:30:34;;;;;;;;;;;;;;;4.84;88.78;99532.06;4932106;29;19957;-87
2022/04/13 09:33:02;;;;;;;;;;;;;;;4.88;88.87;99538.09;4928332;29;19923;-89
2022/04/13 09:35:30;;;;;;;;;;;;;;;4.87;88.88;99534.63;4929056;29;19986;-86
2022/04/13 09:37:55;;;;;;;;;;;;;;;4.90;89.03;99531.91;4926818;29;20426;-89
2022/04/13 09:40:29;;;;;;;;;;;;;;;4.88;89.17;99527.59;4928807;29;19947;-91
2022/04/13 09:43:03;;;;;;;;;;;;;;;4.88;89.06;99528.47;4934086;29;19922;-92
2022/04/13 09:45:32;;;;;;;;;;;;;;;4.84;89.03;99529.44;4924897;29;19966;-91
2022/04/13 09:47:57;;;;;;;;;;;;;;;4.89;89.09;99521.44;4929587;29;20431;-92
2022/04/13 09:50:25;;;;;;;;;;;;;;;4.89;89.34;99524.06;4929390;29;19919;-89
2022/04/13 09:52:55;;;;;;;;;;;;;;;4.91;89.27;99517.91;4929366;29;20401;-89
2022/04/13 09:55:21;;;;;;;;;;;;;;;4.89;88.95;99522.31;4928406;29;19970;-91
2022/04/13 09:58:03;;;;;;;;;;;;;;;;;;;;;
2022/04/13 10:00:28;;;;;;;;;;;;;;;5.08;89.69;99516.63;4931610;29;19923;-76
2022/04/13 10:03:05;;;;;;;;;;;;;;;5.58;93.35;99517.06;4934592;29;20010;-92
2022/04/13 10:26:09;;;;;;;;;;;;;;;4.73;91.49;99520.94;4783581;29;19918;-93
2022/04/13 10:29:13;;;;;;;;;;;;;;;4.74;91.62;99522.69;4755726;30;20016;-94
2022/04/13 10:32:01;;;;;;;;;;;;;;;4.71;91.47;99517.50;4788109;29;19953;-93
2022/04/13 10:35:34;;;;;;;;;;;;;;;4.70;91.29;99521.03;4789658;29;20416;-91
2022/04/13 10:37:47;;;;;;;;;;;;;;;4.64;91.11;99515.91;4801214;29;19933;-93
2022/04/13 10:40:42;;;;;;;;;;;;;;;;;;;;;
2022/04/13 10:46:36;;;;;;;;;;;;;;;4.68;91.18;99501.81;4945308;28;19919;-93
2022/04/13 10:49:36;;;;;;;;;;;;;;;4.62;90.96;99513.31;4927775;29;19927;-93
2022/04/13 10:52:14;;;;;;;;;;;;;;;4.63;90.94;99509.81;4923555;29;19923;-90
2022/04/13 10:54:56;;;;;;;;;;;;;;;;;;;;;
2022/04/13 10:58:03;;;;;;;;;;;;;;;4.63;90.90;99498.47;4927797;29;19919;-91
2022/04/13 11:03:35;;;;;;;;;;;;;;;;;;;;;
2022/04/13 11:06:31;;;;;;;;;;;;;;;;;;;;;
2022/04/13 11:12:24;;;;;;;;;;;;;;;4.57;91.37;99498.59;4940757;23;19982;-91
2022/04/13 11:18:26;;;;;;;;;;;;;;;4.59;91.18;99507.28;4907354;29;19930;-92
2022/04/13 11:27:46;;;;;;;;;;;;;;;4.54;91.20;99505.63;4924725;29;20417;-94
2022/04/13 11:42:38;;;;;;;;;;;;;;;4.54;91.16;99497.75;4892286;29;19929;-91
2022/04/13 11:45:03;;;;;;;;;;;;;;;4.49;90.95;99493.50;4897193;29;19924;-93
2022/04/13 11:47:40;;;;;;;;;;;;;;;4.51;91.04;99495.19;4881506;29;20421;-92
2022/04/13 11:50:24;;;;;;;;;;;;;;;4.53;91.24;99492.53;4903817;29;19923;-91
2022/04/13 11:53:19;;;;;;;;;;;;;;;4.50;91.26;99498.72;4951722;28;20286;-91
2022/04/13 11:55:53;;;;;;;;;;;;;;;4.48;91.17;99489.16;4935019;29;19923;-93
2022/04/13 11:58:20;;;;;;;;;;;;;;;4.46;91.08;99491.81;4936458;29;19926;-93
2022/04/13 12:00:50;;;;;;;;;;;;;;;4.51;91.42;99489.09;4936428;29;19926;-92
2022/04/13 12:03:21;;;;;;;;;;;;;;;4.53;91.36;99497.78;4927690;29;19934;-94
2022/04/13 12:05:57;;;;;;;;;;;;;;;4.51;91.70;99489.94;4942705;28;20442;-93
2022/04/13 12:08:32;;;;;;;;;;;;;;;4.48;91.71;99490.03;4934087;29;19923;-91
2022/04/13 12:11:03;;;;;;;;;;;;;;;4.53;91.79;99482.91;4928212;29;19993;-92
2022/04/13 12:13:32;;;;;;;;;;;;;;;4.53;91.78;99487.28;4935739;29;19962;-91
2022/04/13 12:16:01;;;;;;;;;;;;;;;4.58;91.77;99495.03;4935442;29;19966;-94
2022/04/13 12:18:35;;;;;;;;;;;;;;;4.53;91.89;99490.78;4935339;29;19925;-91
2022/04/13 12:21:21;;;;;;;;;;;;;;;4.57;91.83;99482.84;4936138;29;19954;-94
2022/04/13 12:23:48;;;;;;;;;;;;;;;4.52;91.75;99485.56;4935552;29;19950;-94
2022/04/13 12:26:16;;;;;;;;;;;;;;;4.51;91.77;99484.69;4933120;29;20001;-93
2022/04/13 12:29:11;;;;;;;;;;;;;;;4.51;91.77;99473.34;4933549;29;20394;-92
2022/04/13 12:31:56;;;;;;;;;;;;;;;4.53;91.88;99477.66;4917227;29;20283;-93
2022/04/13 12:34:39;;;;;;;;;;;;;;;4.50;91.96;99477.72;4917834;29;19942;-92
2022/04/13 12:37:33;;;;;;;;;;;;;;;4.50;91.91;99484.72;4916971;29;19987;-93
2022/04/13 12:40:25;;;;;;;;;;;;;;;4.52;91.88;99475.06;4933659;29;20405;-93
2022/04/13 12:43:00;;;;;;;;;;;;;;;4.53;91.75;99482.03;4923924;29;20025;-93
2022/04/13 12:45:48;;;;;;;;;;;;;;;4.53;91.76;99482.03;4917172;29;19923;-94
2022/04/13 12:48:21;;;;;;;;;;;;;;;4.49;91.80;99485.63;4917344;29;19925;-94
2022/04/13 12:54:03;;;;;;;;;;;;;;;;;;;;;
2022/04/13 12:56:40;;;;;;;;;;;;;;;5.78;100.00;99481.50;4933798;29;20390;-93
2022/04/13 12:59:34;;;;;;;;;;;;;;;5.98;100.00;99480.97;4942807;29;20283;-92
2022/04/13 13:01:52;;;;;;;;;;;;;;;6.09;100.00;99483.28;4933206;29;19919;-92
2022/04/13 13:04:30;;;;;;;;;;;;;;;;;;;;;
2022/04/13 13:07:04;;;;;;;;;;;;;;;6.32;100.00;99487.88;4935151;29;19925;-93
2022/04/13 13:09:32;;;;;;;;;;;;;;;6.38;100.00;99487.66;4937617;29;19993;-94
2022/04/13 13:11:59;;;;;;;;;;;;;;;6.44;100.00;99489.25;4934062;29;19919;-90
2022/04/13 13:14:35;;;;;;;;;;;;;;;6.50;100.00;99475.91;4935252;29;20362;-93
2022/04/13 13:17:17;;;;;;;;;;;;;;;6.55;100.00;99480.09;4949055;28;19926;-93
2022/04/13 13:19:52;;;;;;;;;;;;;;;;;;;;;
2022/04/13 13:22:23;;;;;;;;;;;;;;;6.63;100.00;99466.72;4934398;29;19925;-93
2022/04/13 13:25:01;;;;;;;;;;;;;;;;;;;;;
2022/04/13 13:27:27;;;;;;;;;;;;;;;6.73;100.00;99472.53;4934187;29;19919;-93
2022/04/13 13:29:56;;;;;;;;;;;;;;;6.76;100.00;99475.06;4933693;29;20354;-91
2022/04/13 13:32:37;;;;;;;;;;;;;;;6.82;100.00;99481.94;4933169;29;19969;-95
2022/04/13 13:35:30;;;;;;;;;;;;;;;6.85;100.00;99480.06;4934890;29;20401;-94
2022/04/13 13:38:21;;;;;;;;;;;;;;;6.87;100.00;99480.00;4905534;29;20353;-94
2022/04/13 13:41:10;;;;;;;;;;;;;;;6.90;100.00;99482.53;4913670;29;20396;-91
2022/04/13 13:43:37;;;;;;;;;;;;;;;6.93;100.00;99468.41;4916042;29;20422;-90
2022/04/13 13:46:18;;;;;;;;;;;;;;;6.97;100.00;99480.56;4914912;29;19926;-92
2022/04/13 13:48:49;;;;;;;;;;;;;;;6.98;100.00;99483.16;4916267;29;19919;-91
2022/04/13 13:51:53;;;;;;;;;;;;;;;;;;;;;
2022/04/13 13:54:32;;;;;;;;;;;;;;;;;;;;;
2022/04/13 13:57:20;;;;;;;;;;;;;;;;;;;;;
2022/04/13 14:00:18;;;;;;;;;;;;;;;;;;;;;
2022/04/13 14:03:32;;;;;;;;;;;;;;;;;;;;;
2022/04/13 14:06:15;;;;;;;;;;;;;;;7.18;100.00;99473.72;4908176;29;19949;-93
2022/04/13 14:09:16;;;;;;;;;;;;;;;7.19;100.00;99478.06;4907674;29;19919;-91
2022/04/13 14:11:52;;;;;;;;;;;;;;;7.22;100.00;99470.06;4915204;29;19919;-93
2022/04/13 14:15:09;;;;;;;;;;;;;;;;;;;;;
2022/04/13 14:17:33;;;;;;;;;;;;;;;7.25;100.00;99469.97;4914010;29;19919;-93
2022/04/13 14:20:08;;;;;;;;;;;;;;;7.26;100.00;99471.69;4915764;29;20030;-92
2022/04/13 14:22:40;;;;;;;;;;;;;;;7.27;100.00;99476.03;4914714;29;19926;-92
2022/04/13 14:25:06;;;;;;;;;;;;;;;7.28;100.00;99468.06;4914138;29;19977;-92
2022/04/13 14:27:39;;;;;;;;;;;;;;;7.28;100.00;99472.50;4918295;29;20383;-91
2022/04/13 14:30:17;;;;;;;;;;;;;;;6.26;100.00;99481.00;4915152;29;20014;-95
2022/04/13 14:32:43;;;;;;;;;;;;;;;5.90;100.00;99480.28;4914289;29;19919;-94
2022/04/13 14:35:16;;;;;;;;;;;;;;;5.79;100.00;99483.22;4916416;29;20436;-94
2022/04/13 14:37:52;;;;;;;;;;;;;;;;;;;;;
2022/04/13 14:40:28;;;;;;;;;;;;;;;5.61;100.00;99485.44;4934976;29;19924;-92
2022/04/13 14:43:09;;;;;;;;;;;;;;;;;;;;;
2022/04/13 14:46:05;;;;;;;;;;;;;;;;;;;;;
2022/04/13 14:48:48;;;;;;;;;;;;;;;;;;;;;
2022/04/13 14:51:49;;;;;;;;;;;;;;;;;;;;;
2022/04/13 14:54:28;;;;;;;;;;;;;;;;;;;;;
2022/04/13 14:57:22;;;;;;;;;;;;;;;5.30;100.00;99477.53;4936794;29;20351;-94
2022/04/13 14:59:43;;;;;;;;;;;;;;;5.24;100.00;99485.56;4936065;29;19919;-91
2022/04/13 15:02:14;;;;;;;;;;;;;;;5.23;100.00;99482.09;4936950;29;19922;-94
2022/04/13 15:04:43;;;;;;;;;;;;;;;5.22;100.00;99483.00;4938008;29;19968;-92
2022/04/13 15:07:18;;;;;;;;;;;;;;;5.23;100.00;99484.72;4937593;29;19923;-91
2022/04/13 15:10:03;;;;;;;;;;;;;;;5.18;100.00;99481.34;4936157;29;20293;-92
2022/04/13 15:12:32;;;;;;;;;;;;;;;5.20;100.00;99484.81;4936019;29;19923;-90
2022/04/13 15:15:08;;;;;;;;;;;;;;;;;;;;;
2022/04/13 15:17:43;;;;;;;;;;;;;;;5.12;100.00;99485.88;4937460;29;19919;-96
2022/04/13 15:23:39;;;;;;;;;;;;;;;;;;;;;
2022/04/13 15:26:18;;;;;;;;;;;;;;;;;;;;;
2022/04/13 15:28:46;;;;;;;;;;;;;;;5.08;99.79;99485.97;4937094;29;20287;-93
2022/04/13 15:31:22;;;;;;;;;;;;;;;5.05;99.69;99479.94;4936932;29;19983;-93
2022/04/13 15:33:58;;;;;;;;;;;;;;;5.02;99.18;99480.00;4935387;29;20339;-93
2022/04/13 15:36:33;;;;;;;;;;;;;;;;;;;;;
2022/04/13 15:39:04;;;;;;;;;;;;;;;5.01;98.86;99491.41;4937371;29;19923;-90
2022/04/13 15:41:32;;;;;;;;;;;;;;;4.98;98.68;99494.09;4937071;29;19923;-89
2022/04/13 15:44:00;;;;;;;;;;;;;;;4.97;98.41;99492.38;4937156;29;19922;-89
2022/04/13 15:49:51;;;;;;;;;;;;;;;4.91;97.66;99496.91;4915440;29;19970;-92
2022/04/13 15:52:17;;;;;;;;;;;;;;;4.91;97.49;99503.88;4935668;29;19919;-91
2022/04/13 15:54:50;;;;;;;;;;;;;;;4.90;97.14;99496.94;4937128;29;20290;-90
2022/04/13 15:57:15;;;;;;;;;;;;;;;4.88;96.97;99502.22;4935189;29;20011;-94
2022/04/13 15:59:48;;;;;;;;;;;;;;;4.87;96.60;99500.47;4937143;29;20022;-91
2022/04/13 16:02:13;;;;;;;;;;;;;;;4.86;96.27;99509.25;4937046;29;19919;-91
2022/04/13 16:04:39;;;;;;;;;;;;;;;4.80;95.95;99506.75;4939178;29;20395;-92
2022/04/13 16:07:06;;;;;;;;;;;;;;;4.79;96.00;99504.22;4937432;29;20089;-92
2022/04/13 16:09:32;;;;;;;;;;;;;;;4.86;95.88;99511.03;4937762;29;19961;-96
2022/04/13 16:11:57;;;;;;;;;;;;;;;4.82;95.58;99512.88;4935355;29;19919;-95
2022/04/13 16:14:30;;;;;;;;;;;;;;;4.78;95.18;99508.56;4938505;29;19929;-92
2022/04/13 16:16:56;;;;;;;;;;;;;;;4.79;94.99;99510.31;4939550;29;19974;-95
2022/04/13 16:19:21;;;;;;;;;;;;;;;4.77;94.92;99512.13;4930623;29;19943;-91
2022/04/13 16:21:46;;;;;;;;;;;;;;;4.75;94.54;99511.28;4937912;29;19919;-93
2022/04/13 16:24:14;;;;;;;;;;;;;;;4.73;94.16;99520.94;4939381;29;20350;-94
2022/04/13 16:26:49;;;;;;;;;;;;;;;4.72;93.87;99520.09;4938922;29;19943;-92
2022/04/13 16:32:38;;;;;;;;;;;;;;;;;;;;;
2022/04/13 18:15:13;;;;;;;;;;;;;;;;;;;;;
2022/04/13 18:30:54;;;;;;;;;;;;;;;4.36;90.92;99561.13;6105071;23;19913;-93
2022/04/13 18:36:28;;;;;;;;;;;;;;;4.35;91.05;99567.25;6235498;22;19919;-90
2022/04/13 18:39:16;;;;;;;;;;;;;;;4.34;90.99;99571.66;6348331;22;19919;-90
2022/04/13 18:42:10;;;;;;;;;;;;;;;;;;;;;
2022/04/13 18:44:38;;;;;;;;;;;;;;;4.35;90.86;99583.84;6343258;22;19993;-89
2022/04/13 18:47:11;;;;;;;;;;;;;;;4.33;90.94;99579.56;6340965;22;19914;-90
2022/04/13 18:49:38;;;;;;;;;;;;;;;4.34;90.84;99586.50;6345280;22;19946;-89
2022/04/13 18:52:04;;;;;;;;;;;;;;;4.34;90.79;99589.13;6344721;22;19926;-88
2022/04/13 18:54:34;;;;;;;;;;;;;;;4.30;90.68;99595.34;6345040;22;19911;-89
2022/04/13 18:57:02;;;;;;;;;;;;;;;4.33;90.80;99595.28;6340882;22;20322;-91
2022/04/13 18:59:28;;;;;;;;;;;;;;;4.30;90.78;99600.59;6343860;22;19941;-93
2022/04/13 19:01:56;;;;;;;;;;;;;;;4.33;90.89;99601.41;6345112;22;20448;-93
2022/04/13 19:04:30;;;;;;;;;;;;;;;4.29;90.90;99606.72;6342360;22;19915;-89
2022/04/13 19:07:40;;;;;;;;;;;;;;;;;;;;;
2022/04/13 19:13:27;;;;;;;;;;;;;;;4.30;90.95;99617.19;6277964;22;19918;-91
2022/04/13 19:15:54;;;;;;;;;;;;;;;4.31;90.98;99620.72;6350627;22;19911;-89
2022/04/13 19:18:19;;;;;;;;;;;;;;;4.32;90.73;99622.41;6346082;22;19925;-89
2022/04/13 19:20:45;;;;;;;;;;;;;;;4.28;90.75;99626.00;6323340;22;19911;-88
2022/04/13 19:23:30;;;;;;;;;;;;;;;4.26;90.89;99627.78;6314675;22;19914;-92
2022/04/13 19:25:58;;;;;;;;;;;;;;;4.25;90.95;99640.03;6310309;22;19990;-90
2022/04/13 19:28:24;;;;;;;;;;;;;;;4.29;90.86;99638.22;6310260;22;19911;-89
2022/04/13 19:30:49;;;;;;;;;;;;;;;4.26;90.80;99640.88;6315803;22;19947;-88
2022/04/13 19:33:14;;;;;;;;;;;;;;;4.29;90.81;99643.47;6308379;22;19911;-88
2022/04/13 19:35:51;;;;;;;;;;;;;;;4.29;90.62;99643.47;6314847;22;19931;-91
2022/04/13 19:38:57;;;;;;;;;;;;;;;4.28;90.72;99639.97;6316268;22;19915;-89
2022/04/13 19:41:53;;;;;;;;;;;;;;;;;;;;;
2022/04/13 19:44:50;;;;;;;;;;;;;;;4.27;90.53;99650.50;6319484;22;20352;-89
2022/04/13 19:53:18;;;;;;;;;;;;;;;;;;;;;
2022/04/13 19:55:43;;;;;;;;;;;;;;;4.25;90.58;99670.66;6303539;22;20322;-88
2022/04/13 19:58:09;;;;;;;;;;;;;;;4.25;90.65;99671.50;6311750;22;19922;-87
2022/04/13 20:00:34;;;;;;;;;;;;;;;4.22;90.74;99676.81;6310316;22;19911;-88
2022/04/13 20:03:02;;;;;;;;;;;;;;;4.26;90.58;99673.25;6315116;22;19911;-92
2022/04/13 20:05:46;;;;;;;;;;;;;;;;;;;;;
2022/04/13 20:08:55;;;;;;;;;;;;;;;4.24;90.52;99676.78;6312494;22;20345;-90
2022/04/13 20:11:46;;;;;;;;;;;;;;;4.22;90.42;99675.97;6314260;22;19981;-92
2022/04/13 20:14:29;;;;;;;;;;;;;;;;;;;;;
2022/04/13 20:17:09;;;;;;;;;;;;;;;4.21;90.29;99689.94;6312682;22;19911;-90
2022/04/13 20:19:35;;;;;;;;;;;;;;;4.19;90.31;99689.97;6314081;22;19921;-95
2022/04/13 20:22:35;;;;;;;;;;;;;;;;;;;;;
2022/04/13 20:25:36;;;;;;;;;;;;;;;;;;;;;
2022/04/13 20:28:22;;;;;;;;;;;;;;;4.19;90.46;99696.09;6156117;23;19983;-90
2022/04/13 20:30:53;;;;;;;;;;;;;;;4.21;90.49;99697.81;6248714;23;19918;-89
2022/04/13 20:33:19;;;;;;;;;;;;;;;4.21;90.48;99705.69;6221447;23;20236;-93
2022/04/13 20:35:44;;;;;;;;;;;;;;;4.21;90.57;99705.69;6255913;22;19911;-95
2022/04/13 20:38:10;;;;;;;;;;;;;;;4.19;90.40;99706.56;6318131;22;19915;-91
2022/04/13 20:40:37;;;;;;;;;;;;;;;4.18;90.40;99717.97;6316222;22;19911;-87
2022/04/13 20:43:05;;;;;;;;;;;;;;;4.19;90.49;99718.84;6309538;22;20373;-91
2022/04/13 20:45:35;;;;;;;;;;;;;;;4.19;90.33;99718.84;6308715;22;19918;-88
2022/04/13 20:51:03;;;;;;;;;;;;;;;4.19;90.22;99713.59;6310887;22;19922;-90
2022/04/13 20:53:29;;;;;;;;;;;;;;;4.18;90.36;99714.50;6309594;22;19911;-92
2022/04/13 20:55:54;;;;;;;;;;;;;;;4.19;90.45;99716.22;6308365;22;19940;-91
2022/04/13 20:58:19;;;;;;;;;;;;;;;4.18;90.46;99714.50;6308567;22;19911;-91
2022/04/13 21:00:45;;;;;;;;;;;;;;;4.18;90.40;99717.13;6305841;22;19915;-89
2022/04/13 21:03:10;;;;;;;;;;;;;;;4.18;90.39;99717.13;6314000;22;19922;-91
2022/04/13 21:05:36;;;;;;;;;;;;;;;4.18;90.43;99715.34;6306662;22;19922;-89
2022/04/13 21:08:02;;;;;;;;;;;;;;;4.18;90.16;99722.38;6334485;22;19925;-89
2022/04/13 21:10:34;;;;;;;;;;;;;;;4.17;90.45;99725.88;6312226;22;19915;-90
2022/04/13 21:13:33;;;;;;;;;;;;;;;;;;;;;
2022/04/13 21:16:15;;;;;;;;;;;;;;;;;;;;;
2022/04/13 21:18:41;;;;;;;;;;;;;;;4.19;90.41;99724.94;6315052;22;20142;-92
2022/04/13 21:21:09;;;;;;;;;;;;;;;4.16;90.23;99727.63;6288057;22;19915;-90
2022/04/13 21:48:40;;;;;;;;;;;;;;;;;;;;;
2022/04/13 21:53:40;;;;;;;;;;;;;;;4.16;90.41;99745.09;6374103;22;19918;-94
2022/04/13 21:56:41;;;;;;;;;;;;;;;;;;;;;
2022/04/13 22:02:07;;;;;;;;;;;;;;;4.71;93.22;99749.34;6371070;22;20006;-85
2022/04/13 22:04:33;;;;;;;;;;;;;;;4.48;92.67;99744.56;6371271;22;19910;-89
2022/04/13 22:06:58;;;;;;;;;;;;;;;4.36;91.86;99740.38;6371370;22;19918;-86
2022/04/13 22:09:23;;;;;;;;;;;;;;;4.33;91.35;99739.56;6370664;22;19918;-87
2022/04/13 22:11:49;;;;;;;;;;;;;;;4.35;90.85;99745.66;6341418;22;19914;-87
2022/04/13 22:14:14;;;;;;;;;;;;;;;4.33;90.43;99736.94;6370941;22;20234;-88
2022/04/13 22:16:39;;;;;;;;;;;;;;;4.29;90.10;99738.78;6342068;22;19914;-87
2022/04/13 22:19:05;;;;;;;;;;;;;;;4.31;90.05;99744.84;6370259;22;19921;-87
2022/04/13 22:21:30;;;;;;;;;;;;;;;4.29;89.76;99741.41;6343215;22;19914;-86
2022/04/13 22:23:56;;;;;;;;;;;;;;;4.31;89.62;99749.25;6342956;22;19928;-86
2022/04/13 22:26:22;;;;;;;;;;;;;;;4.29;89.64;99741.41;6370137;22;19922;-86
2022/04/13 22:28:47;;;;;;;;;;;;;;;4.27;89.50;99748.41;6371655;22;19985;-87
2022/04/13 22:31:12;;;;;;;;;;;;;;;4.28;89.54;99739.66;6316747;22;20344;-85
2022/04/13 22:33:37;;;;;;;;;;;;;;;4.27;89.53;99739.69;6370755;22;19922;-87
2022/04/13 22:36:03;;;;;;;;;;;;;;;4.29;89.34;99748.38;6342622;22;19917;-86
2022/04/13 22:38:29;;;;;;;;;;;;;;;4.24;89.31;99745.84;6342763;22;19967;-86
2022/04/13 22:40:54;;;;;;;;;;;;;;;4.23;89.32;99748.47;6341635;22;19921;-87
2022/04/13 22:43:19;;;;;;;;;;;;;;;4.25;89.25;99749.34;6370543;22;19914;-88
2022/04/13 22:45:44;;;;;;;;;;;;;;;4.24;89.35;99744.97;6343132;22;20340;-85
2022/04/13 22:48:10;;;;;;;;;;;;;;;4.24;89.32;99744.97;6370392;22;19910;-86
2022/04/13 22:50:35;;;;;;;;;;;;;;;4.25;89.39;99749.34;6370939;22;19932;-84
2022/04/13 22:53:00;;;;;;;;;;;;;;;4.25;89.46;99749.34;6370011;22;19918;-85
2022/04/13 22:55:26;;;;;;;;;;;;;;;4.24;89.21;99742.34;6370125;22;19914;-87
2022/04/13 22:57:51;;;;;;;;;;;;;;;4.24;89.19;99739.72;6341331;22;20326;-88
2022/04/13 23:00:16;;;;;;;;;;;;;;;4.24;89.22;99747.59;6370487;22;19910;-86
2022/04/13 23:02:42;;;;;;;;;;;;;;;4.24;89.11;99744.97;6370378;22;19989;-83
2022/04/13 23:05:07;;;;;;;;;;;;;;;4.24;89.03;99752.84;6370172;22;19910;-86
2022/04/13 23:07:32;;;;;;;;;;;;;;;4.22;89.02;99752.88;6370342;22;20342;-85
2022/04/13 23:10:03;;;;;;;;;;;;;;;4.22;89.10;99745.00;6369911;22;19964;-86
2022/04/13 23:12:28;;;;;;;;;;;;;;;4.24;88.97;99747.59;6340868;22;20230;-85
2022/04/13 23:14:54;;;;;;;;;;;;;;;4.25;88.96;99747.56;6370118;22;19920;-84
2022/04/13 23:17:22;;;;;;;;;;;;;;;4.22;88.87;99745.00;6370009;22;19955;-86
2022/04/13 23:19:48;;;;;;;;;;;;;;;4.24;88.93;99755.47;6369920;22;19910;-84
2022/04/13 23:22:13;;;;;;;;;;;;;;;4.24;88.90;99752.84;6342092;22;19958;-85
2022/04/13 23:24:39;;;;;;;;;;;;;;;4.22;88.77;99754.66;6342791;22;20229;-83
2022/04/13 23:27:04;;;;;;;;;;;;;;;4.23;88.84;99751.09;6368857;22;19914;-86
2022/04/13 23:29:30;;;;;;;;;;;;;;;4.22;88.76;99758.13;6370159;22;19916;-89
2022/04/13 23:31:55;;;;;;;;;;;;;;;4.22;88.80;99750.25;6369997;22;19984;-85
2022/04/13 23:34:20;;;;;;;;;;;;;;;4.25;88.65;99751.97;6370128;22;19914;-90
2022/04/13 23:36:45;;;;;;;;;;;;;;;4.23;88.68;99745.88;6343057;22;19967;-83
2022/04/13 23:39:10;;;;;;;;;;;;;;;4.24;88.76;99744.97;6370358;22;20375;-87
2022/04/13 23:41:36;;;;;;;;;;;;;;;4.23;88.71;99749.38;6368923;22;19921;-85
2022/04/13 23:44:01;;;;;;;;;;;;;;;4.24;88.87;99748.47;6369783;22;19946;-86
2022/04/13 23:46:27;;;;;;;;;;;;;;;4.27;89.84;99742.31;6342542;22;19914;-84
2022/04/13 23:48:52;;;;;;;;;;;;;;;4.28;90.65;99744.03;6342291;22;20336;-89
2022/04/13 23:51:17;;;;;;;;;;;;;;;4.29;91.10;99740.50;6341757;22;19910;-88
2022/04/13 23:53:42;;;;;;;;;;;;;;;4.25;91.40;99744.09;6341578;22;19943;-88
2022/04/13 23:56:08;;;;;;;;;;;;;;;4.27;91.44;99752.81;6340636;22;19918;-90
2022/04/13 23:58:33;;;;;;;;;;;;;;;4.23;91.58;99748.47;6342310;22;19906;-87
